createdAt,value
2023-05-10T04:00:12.881Z,1002.78
2023-05-10T04:01:13.046Z,1002.82
2023-05-10T04:02:13.139Z,1002.78
2023-05-10T04:03:13.255Z,1002.83
2023-05-10T04:04:13.500Z,1002.87
2023-05-10T04:05:14.168Z,1002.82
2023-05-10T04:06:14.518Z,1002.86
2023-05-10T04:07:13.731Z,1002.88
2023-05-10T04:08:13.864Z,1002.85
2023-05-10T04:09:13.962Z,1002.82
2023-05-10T04:10:14.323Z,1002.83
2023-05-10T04:11:15.205Z,1002.86
2023-05-10T04:12:15.308Z,1002.91
2023-05-10T04:13:14.530Z,1002.91
2023-05-10T04:14:15.535Z,1002.84
2023-05-10T04:15:14.688Z,1002.92
2023-05-10T04:16:14.842Z,1002.90
2023-05-10T04:17:14.986Z,1002.93
2023-05-10T04:18:15.046Z,1002.88
2023-05-10T04:19:15.185Z,1002.87
2023-05-10T04:20:15.539Z,1002.91
2023-05-10T04:21:15.518Z,1002.89
2023-05-10T04:22:15.653Z,1002.84
2023-05-10T04:23:15.796Z,1002.87
2023-05-10T04:24:15.962Z,1002.86
2023-05-10T04:25:16.086Z,1002.92
2023-05-10T04:26:16.220Z,1002.90
2023-05-10T04:27:16.349Z,1002.88
2023-05-10T04:28:16.441Z,1002.91
2023-05-10T04:29:16.601Z,1002.92
2023-05-10T04:30:16.981Z,1002.93
2023-05-10T04:31:17.022Z,1002.93
2023-05-10T04:32:16.978Z,1002.93
2023-05-10T04:33:17.108Z,1002.91
2023-05-10T04:34:17.314Z,1002.93
2023-05-10T04:35:17.516Z,1002.91
2023-05-10T04:36:17.542Z,1002.95
2023-05-10T04:37:17.642Z,1002.94
2023-05-10T04:38:17.770Z,1003.01
2023-05-10T04:39:17.891Z,1002.98
2023-05-10T04:40:18.283Z,1003.04
2023-05-10T04:41:18.161Z,1002.97
2023-05-10T04:42:18.278Z,1003.07
2023-05-10T04:43:18.442Z,1003.08
2023-05-10T04:44:18.584Z,1003.07
2023-05-10T04:45:18.673Z,1003.10
2023-05-10T04:46:18.845Z,1003.09
2023-05-10T04:47:18.967Z,1003.08
2023-05-10T04:48:19.131Z,1003.12
2023-05-10T04:49:20.266Z,1003.15
2023-05-10T04:50:19.552Z,1003.13
2023-05-10T04:51:19.577Z,1003.14
2023-05-10T04:52:19.670Z,1003.19
2023-05-10T04:53:20.548Z,1003.20
2023-05-10T04:54:19.905Z,1003.21
2023-05-10T04:55:20.020Z,1003.19
2023-05-10T04:56:20.129Z,1003.28
2023-05-10T04:57:20.273Z,1003.28
2023-05-10T04:58:20.393Z,1003.26
2023-05-10T04:59:20.559Z,1003.30
2023-05-10T05:00:20.691Z,1003.31
2023-05-10T05:01:20.906Z,1003.33
2023-05-10T05:02:21.016Z,1003.33
2023-05-10T05:03:21.146Z,1003.35
2023-05-10T05:04:21.209Z,1003.33
2023-05-10T05:05:21.354Z,1003.32
2023-05-10T05:06:21.473Z,1003.38
2023-05-10T05:07:21.610Z,1003.36
2023-05-10T05:08:21.726Z,1003.40
2023-05-10T05:09:21.858Z,1003.44
2023-05-10T05:10:21.969Z,1003.42
2023-05-10T05:11:22.117Z,1003.45
2023-05-10T05:12:22.219Z,1003.44
2023-05-10T05:13:22.437Z,1003.46
2023-05-10T05:14:22.541Z,1003.46
2023-05-10T05:15:22.689Z,1003.47
2023-05-10T05:16:22.952Z,1003.47
2023-05-10T05:17:22.981Z,1003.47
2023-05-10T05:18:23.792Z,1003.51
2023-05-10T05:19:23.229Z,1003.49
2023-05-10T05:20:23.394Z,1003.54
2023-05-10T05:21:23.547Z,1003.54
2023-05-10T05:22:23.686Z,1003.54
2023-05-10T05:23:23.805Z,1003.57
2023-05-10T05:24:23.927Z,1003.52
2023-05-10T05:25:24.093Z,1003.52
2023-05-10T05:26:24.212Z,1003.59
2023-05-10T05:27:25.060Z,1003.56
2023-05-10T05:28:24.494Z,1003.55
2023-05-10T05:29:25.288Z,1003.57
2023-05-10T05:30:24.780Z,1003.58
2023-05-10T05:31:25.893Z,1003.59
2023-05-10T05:32:25.077Z,1003.63
2023-05-10T05:33:25.185Z,1003.64
2023-05-10T05:35:40.877Z,1003.65
2023-05-10T05:36:41.081Z,1003.65
2023-05-10T05:37:41.082Z,1003.67
2023-05-10T05:38:41.219Z,1003.68
2023-05-10T05:39:41.492Z,1003.67
2023-05-10T05:40:41.651Z,1003.72
2023-05-10T05:41:41.703Z,1003.68
2023-05-10T05:42:41.770Z,1003.71
2023-05-10T05:43:42.677Z,1003.72
2023-05-10T05:44:42.109Z,1003.73
2023-05-10T05:45:42.178Z,1003.75
2023-05-10T05:46:42.519Z,1003.69
2023-05-10T05:47:42.684Z,1003.77
2023-05-10T05:48:42.565Z,1003.73
2023-05-10T05:49:42.736Z,1003.79
2023-05-10T05:50:43.715Z,1003.75
2023-05-10T05:51:43.003Z,1003.77
2023-05-10T05:52:43.165Z,1003.81
2023-05-10T05:53:43.377Z,1003.78
2023-05-10T05:54:43.450Z,1003.81
2023-05-10T05:55:43.596Z,1003.81
2023-05-10T05:56:43.764Z,1003.82
2023-05-10T05:57:44.020Z,1003.87
2023-05-10T05:58:44.137Z,1003.88
2023-05-10T05:59:44.144Z,1003.90
2023-05-10T06:00:45.398Z,1003.93
2023-05-10T06:01:44.608Z,1003.89
2023-05-10T06:02:44.746Z,1003.95
2023-05-10T06:03:44.723Z,1003.96
2023-05-10T06:04:45.080Z,1003.95
2023-05-10T06:05:44.878Z,1003.92
2023-05-10T06:06:45.057Z,1003.93
2023-05-10T06:07:45.103Z,1003.99
2023-05-10T06:08:45.131Z,1004.00
2023-05-10T06:09:45.307Z,1003.98
2023-05-10T06:10:45.565Z,1004.00
2023-05-10T06:11:45.594Z,1004.06
2023-05-10T06:12:45.704Z,1004.02
2023-05-10T06:13:45.848Z,1004.06
2023-05-10T06:14:46.035Z,1004.05
2023-05-10T06:15:46.116Z,1004.11
2023-05-10T06:16:46.295Z,1004.08
2023-05-10T06:17:46.450Z,1004.13
2023-05-10T06:18:46.623Z,1004.11
2023-05-10T06:19:46.674Z,1004.14
2023-05-10T06:20:46.816Z,1004.18
2023-05-10T06:21:47.213Z,1004.15
2023-05-10T06:22:47.088Z,1004.18
2023-05-10T06:23:47.359Z,1004.18
2023-05-10T06:24:47.444Z,1004.17
2023-05-10T06:25:47.510Z,1004.21
2023-05-10T06:26:47.865Z,1004.20
2023-05-10T06:27:51.119Z,1004.26
2023-05-10T06:28:48.851Z,1004.23
2023-05-10T06:29:49.210Z,1004.23
2023-05-10T06:30:48.116Z,1004.25
2023-05-10T06:31:48.366Z,1004.25
2023-05-10T06:32:48.451Z,1004.29
2023-05-10T06:33:48.530Z,1004.27
2023-05-10T06:34:48.857Z,1004.28
2023-05-10T06:35:49.993Z,1004.33
2023-05-10T06:36:48.987Z,1004.28
2023-05-10T06:37:49.136Z,1004.28
2023-05-10T06:38:49.350Z,1004.29
2023-05-10T06:39:50.681Z,1004.33
2023-05-10T06:40:49.574Z,1004.31
2023-05-10T06:41:49.880Z,1004.38
2023-05-10T06:42:49.839Z,1004.37
2023-05-10T06:43:49.976Z,1004.33
2023-05-10T06:44:50.153Z,1004.37
2023-05-10T06:45:50.265Z,1004.37
2023-05-10T06:46:51.452Z,1004.45
2023-05-10T06:47:50.661Z,1004.41
2023-05-10T06:48:51.667Z,1004.38
2023-05-10T06:49:51.036Z,1004.44
2023-05-10T06:50:51.033Z,1004.44
2023-05-10T06:51:51.826Z,1004.44
2023-05-10T06:52:53.139Z,1004.49
2023-05-10T06:53:51.353Z,1004.50
2023-05-10T06:54:51.529Z,1004.50
2023-05-10T06:55:52.653Z,1004.55
2023-05-10T06:56:52.702Z,1004.53
2023-05-10T06:57:51.934Z,1004.57
2023-05-10T06:58:52.052Z,1004.56
2023-05-10T06:59:52.154Z,1004.56
2023-05-10T07:00:52.360Z,1004.61
2023-05-10T07:01:52.455Z,1004.54
2023-05-10T07:02:52.589Z,1004.59
2023-05-10T07:03:52.706Z,1004.57
2023-05-10T07:04:53.082Z,1004.61
2023-05-10T07:05:52.934Z,1004.58
2023-05-10T07:06:53.175Z,1004.59
2023-05-10T07:07:53.274Z,1004.56
2023-05-10T07:08:53.407Z,1004.57
2023-05-10T07:09:53.558Z,1004.62
2023-05-10T07:10:53.595Z,1004.61
2023-05-10T07:11:53.793Z,1004.64
2023-05-10T07:12:53.972Z,1004.59
2023-05-10T07:13:54.012Z,1004.63
2023-05-10T07:14:54.156Z,1004.61
2023-05-10T07:15:54.298Z,1004.63
2023-05-10T07:16:54.366Z,1004.66
2023-05-10T07:17:54.676Z,1004.69
2023-05-10T07:18:54.747Z,1004.69
2023-05-10T07:19:54.852Z,1004.71
2023-05-10T07:20:54.976Z,1004.67
2023-05-10T07:21:55.115Z,1004.66
2023-05-10T07:22:55.212Z,1004.70
2023-05-10T07:23:55.447Z,1004.72
2023-05-10T07:24:55.552Z,1004.71
2023-05-10T07:25:55.622Z,1004.75
2023-05-10T07:26:56.680Z,1004.71
2023-05-10T07:27:55.933Z,1004.73
2023-05-10T07:28:56.130Z,1004.73
2023-05-10T07:29:56.302Z,1004.75
2023-05-10T07:30:56.608Z,1004.76
2023-05-10T07:31:58.817Z,1004.71
2023-05-10T07:34:12.585Z,1004.69
2023-05-10T07:35:12.607Z,1004.68
2023-05-10T07:36:12.509Z,1004.71
2023-05-10T07:37:12.597Z,1004.68
2023-05-10T07:38:12.772Z,1004.72
2023-05-10T07:39:21.201Z,1004.70
2023-05-10T07:40:14.023Z,1004.70
2023-05-10T07:41:13.113Z,1004.71
2023-05-10T07:42:13.163Z,1004.72
2023-05-10T07:43:14.072Z,1004.73
2023-05-10T07:44:13.371Z,1004.73
2023-05-10T07:45:13.588Z,1004.74
2023-05-10T07:46:13.723Z,1004.72
2023-05-10T07:47:13.783Z,1004.77
2023-05-10T07:48:13.972Z,1004.80
2023-05-10T07:49:14.088Z,1004.80
2023-05-10T07:50:14.153Z,1004.79
2023-05-10T07:51:14.358Z,1004.86
2023-05-10T07:52:14.444Z,1004.85
2023-05-10T07:53:15.636Z,1004.83
2023-05-10T07:54:14.741Z,1004.82
2023-05-10T07:55:15.158Z,1004.82
2023-05-10T07:56:14.899Z,1004.78
2023-05-10T07:57:15.207Z,1004.81
2023-05-10T07:58:15.186Z,1004.73
2023-05-10T07:59:15.334Z,1004.79
2023-05-10T08:00:15.450Z,1004.83
2023-05-10T08:01:15.640Z,1004.85
2023-05-10T08:02:15.802Z,1004.84
2023-05-10T08:03:16.269Z,1004.89
2023-05-10T08:04:16.144Z,1004.84
2023-05-10T08:05:16.351Z,1004.85
2023-05-10T08:06:16.261Z,1004.85
2023-05-10T08:07:17.164Z,1004.82
2023-05-10T08:08:16.525Z,1004.85
2023-05-10T08:09:16.914Z,1004.93
2023-05-10T08:10:16.846Z,1004.89
2023-05-10T08:11:17.967Z,1004.91
2023-05-10T08:12:17.086Z,1004.92
2023-05-10T08:13:17.280Z,1004.92
2023-05-10T08:14:18.020Z,1004.92
2023-05-10T08:15:17.765Z,1004.90
2023-05-10T08:16:18.830Z,1004.93
2023-05-10T08:17:19.723Z,1004.92
2023-05-10T08:18:20.600Z,1004.99
2023-05-10T08:19:18.841Z,1005.00
2023-05-10T08:20:18.312Z,1005.02
2023-05-10T08:21:18.209Z,1004.98
2023-05-10T08:22:18.439Z,1005.04
2023-05-10T08:23:18.488Z,1005.05
2023-05-10T08:24:18.617Z,1005.06
2023-05-10T08:25:19.037Z,1005.07
2023-05-10T08:26:19.963Z,1005.07
2023-05-10T08:27:19.032Z,1005.08
2023-05-10T08:28:20.052Z,1005.06
2023-05-10T08:29:19.367Z,1005.05
2023-05-10T08:30:19.497Z,1005.04
2023-05-10T08:31:21.506Z,1005.04
2023-05-10T08:32:19.635Z,1005.05
2023-05-10T08:33:19.807Z,1005.07
2023-05-10T08:34:20.022Z,1005.08
2023-05-10T08:35:20.065Z,1005.12
2023-05-10T08:36:20.222Z,1005.09
2023-05-10T08:37:20.458Z,1005.14
2023-05-10T08:38:21.634Z,1005.10
2023-05-10T08:39:29.796Z,1005.11
2023-05-10T08:40:21.818Z,1005.17
2023-05-10T08:41:21.937Z,1005.15
2023-05-10T08:42:20.994Z,1005.16
2023-05-10T08:43:21.304Z,1005.16
2023-05-10T08:44:21.269Z,1005.14
2023-05-10T08:45:21.474Z,1005.18
2023-05-10T08:46:21.621Z,1005.19
2023-05-10T08:47:22.486Z,1005.14
2023-05-10T08:48:21.832Z,1005.17
2023-05-10T08:49:21.963Z,1005.14
2023-05-10T08:50:24.257Z,1005.17
2023-05-10T08:51:22.325Z,1005.17
2023-05-10T08:52:22.309Z,1005.21
2023-05-10T08:53:22.491Z,1005.21
2023-05-10T08:54:22.601Z,1005.21
2023-05-10T08:55:22.695Z,1005.18
2023-05-10T08:56:22.873Z,1005.21
2023-05-10T08:57:23.026Z,1005.20
2023-05-10T08:58:23.216Z,1005.23
2023-05-10T08:59:23.504Z,1005.24
2023-05-10T09:00:23.500Z,1005.23
2023-05-10T09:01:23.737Z,1005.22
2023-05-10T09:02:23.911Z,1005.21
2023-05-10T09:03:23.905Z,1005.20
2023-05-10T09:04:24.204Z,1005.19
2023-05-10T09:05:24.146Z,1005.23
2023-05-10T09:06:24.456Z,1005.24
2023-05-10T09:07:24.430Z,1005.28
2023-05-10T09:08:25.461Z,1005.28
2023-05-10T09:09:24.704Z,1005.27
2023-05-10T09:10:24.799Z,1005.29
2023-05-10T09:11:24.975Z,1005.31
2023-05-10T09:12:25.160Z,1005.28
2023-05-10T09:13:25.201Z,1005.25
2023-05-10T09:14:25.310Z,1005.28
2023-05-10T09:15:26.457Z,1005.26
2023-05-10T09:16:27.706Z,1005.27
2023-05-10T09:17:26.122Z,1005.24
2023-05-10T09:18:27.927Z,1005.27
2023-05-10T09:19:26.945Z,1005.32
2023-05-10T09:21:41.759Z,1005.26
2023-05-10T09:22:41.920Z,1005.34
2023-05-10T09:23:47.409Z,1005.30
2023-05-10T09:24:43.215Z,1005.33
2023-05-10T09:25:43.388Z,1005.32
2023-05-10T09:26:42.590Z,1005.29
2023-05-10T09:27:42.733Z,1005.38
2023-05-10T09:28:42.917Z,1005.31
2023-05-10T09:29:43.181Z,1005.33
2023-05-10T09:30:44.105Z,1005.37
2023-05-10T09:31:43.348Z,1005.37
2023-05-10T09:32:43.413Z,1005.37
2023-05-10T09:33:44.216Z,1005.41
2023-05-10T09:34:46.713Z,1005.37
2023-05-10T09:35:43.702Z,1005.36
2023-05-10T09:36:43.752Z,1005.36
2023-05-10T09:37:43.862Z,1005.35
2023-05-10T09:38:43.971Z,1005.39
2023-05-10T09:39:44.302Z,1005.33
2023-05-10T09:40:44.349Z,1005.34
2023-05-10T09:41:44.447Z,1005.35
2023-05-10T09:42:44.628Z,1005.40
2023-05-10T09:43:44.778Z,1005.46
2023-05-10T09:44:45.380Z,1005.43
2023-05-10T09:45:46.134Z,1005.45
2023-05-10T09:46:45.821Z,1005.45
2023-05-10T09:47:45.351Z,1005.43
2023-05-10T09:48:47.051Z,1005.50
2023-05-10T09:49:45.633Z,1005.55
2023-05-10T09:50:45.657Z,1005.52
2023-05-10T09:51:45.835Z,1005.53
2023-05-10T09:52:45.973Z,1005.55
2023-05-10T09:53:46.054Z,1005.53
2023-05-10T09:54:46.797Z,1005.57
2023-05-10T09:55:46.294Z,1005.55
2023-05-10T09:56:46.596Z,1005.58
2023-05-10T09:57:46.826Z,1005.55
2023-05-10T09:58:46.784Z,1005.61
2023-05-10T09:59:47.623Z,1005.67
2023-05-10T10:00:47.767Z,1005.63
2023-05-10T10:01:49.222Z,1005.62
2023-05-10T10:13:24.912Z,1005.71
2023-05-10T10:14:25.021Z,1005.74
2023-05-10T10:15:25.205Z,1005.75
2023-05-10T10:16:25.334Z,1005.76
2023-05-10T10:17:25.534Z,1005.65
2023-05-10T10:18:25.761Z,1005.67
2023-05-10T10:19:25.801Z,1005.68
2023-05-10T10:20:25.888Z,1005.66
2023-05-10T10:21:26.072Z,1005.66
2023-05-10T10:22:26.130Z,1005.66
2023-05-10T10:23:26.321Z,1005.71
2023-05-10T10:24:26.419Z,1005.67
2023-05-10T10:25:26.623Z,1005.68
2023-05-10T10:26:26.558Z,1005.68
2023-05-10T10:27:26.775Z,1005.67
2023-05-10T10:28:28.262Z,1005.69
2023-05-10T10:29:27.079Z,1005.67
2023-05-10T10:30:27.210Z,1005.70
2023-05-10T10:31:28.074Z,1005.68
2023-05-10T10:32:27.551Z,1005.74
2023-05-10T10:33:28.692Z,1005.68
2023-05-10T10:34:27.934Z,1005.74
2023-05-10T10:35:28.498Z,1005.71
2023-05-10T10:36:27.947Z,1005.65
2023-05-10T10:37:28.316Z,1005.68
2023-05-10T10:38:28.189Z,1005.70
2023-05-10T10:39:28.377Z,1005.69
2023-05-10T10:40:28.505Z,1005.64
2023-05-10T10:41:28.577Z,1005.64
2023-05-10T10:42:28.727Z,1005.68
2023-05-10T10:43:28.852Z,1005.64
2023-05-10T10:44:29.146Z,1005.64
2023-05-10T10:45:29.149Z,1005.62
2023-05-10T10:46:29.503Z,1005.64
2023-05-10T10:47:29.503Z,1005.64
2023-05-10T10:48:29.604Z,1005.63
2023-05-10T10:49:29.745Z,1005.62
2023-05-10T10:50:30.877Z,1005.66
2023-05-10T10:51:30.093Z,1005.67
2023-05-10T10:52:30.117Z,1005.64
2023-05-10T10:53:30.376Z,1005.68
2023-05-10T10:54:31.364Z,1005.68
2023-05-10T10:55:31.485Z,1005.68
2023-05-10T10:56:30.617Z,1005.68
2023-05-10T10:57:30.791Z,1005.72
2023-05-10T10:58:30.955Z,1005.72
2023-05-10T10:59:31.130Z,1005.72
2023-05-10T11:00:31.247Z,1005.76
2023-05-10T11:01:31.519Z,1005.68
2023-05-10T11:02:31.771Z,1005.71
2023-05-10T11:03:32.651Z,1005.75
2023-05-10T11:04:31.989Z,1005.75
2023-05-10T11:05:32.879Z,1005.76
2023-05-10T11:06:32.125Z,1005.75
2023-05-10T11:07:32.218Z,1005.76
2023-05-10T11:08:32.407Z,1005.78
2023-05-10T11:09:32.546Z,1005.82
2023-05-10T11:10:32.615Z,1005.75
2023-05-10T11:11:32.757Z,1005.67
2023-05-10T11:12:33.995Z,1005.70
2023-05-10T11:13:34.095Z,1005.72
2023-05-10T11:14:34.162Z,1005.76
2023-05-10T11:15:33.523Z,1005.77
2023-05-10T11:16:33.609Z,1005.77
2023-05-10T11:17:33.607Z,1005.75
2023-05-10T11:18:33.839Z,1005.79
2023-05-10T11:19:34.775Z,1005.80
2023-05-10T11:20:34.061Z,1005.82
2023-05-10T11:21:34.324Z,1005.81
2023-05-10T11:22:34.276Z,1005.80
2023-05-10T11:23:34.405Z,1005.85
2023-05-10T11:24:34.622Z,1005.88
2023-05-10T11:25:34.704Z,1005.87
2023-05-10T11:26:34.985Z,1005.87
2023-05-10T11:27:35.013Z,1005.86
2023-05-10T11:28:35.121Z,1005.90
2023-05-10T11:29:35.237Z,1005.94
2023-05-10T11:30:36.304Z,1005.96
2023-05-10T11:31:35.570Z,1005.93
2023-05-10T11:32:35.711Z,1005.95
2023-05-10T11:33:35.831Z,1005.96
2023-05-10T11:34:35.945Z,1005.93
2023-05-10T11:35:36.059Z,1005.97
2023-05-10T11:36:36.262Z,1005.96
2023-05-10T11:37:36.416Z,1005.91
2023-05-10T11:38:36.627Z,1005.97
2023-05-10T11:39:36.716Z,1006.00
2023-05-10T11:40:36.730Z,1005.99
2023-05-10T11:41:36.866Z,1006.01
2023-05-10T11:42:37.108Z,1005.99
2023-05-10T11:43:37.147Z,1006.05
2023-05-10T11:44:37.338Z,1005.97
2023-05-10T11:45:37.376Z,1005.98
2023-05-10T11:46:37.527Z,1006.04
2023-05-10T11:47:37.750Z,1006.05
2023-05-10T11:48:37.729Z,1006.07
2023-05-10T11:49:37.859Z,1006.02
2023-05-10T11:50:38.036Z,1006.04
2023-05-10T11:51:38.149Z,1006.02
2023-05-10T11:52:38.316Z,1006.09
2023-05-10T11:53:38.372Z,1006.09
2023-05-10T11:54:38.508Z,1006.08
2023-05-10T11:55:38.670Z,1006.09
2023-05-10T11:56:38.834Z,1006.06
2023-05-10T11:57:39.010Z,1006.08
2023-05-10T11:58:39.111Z,1006.09
2023-05-10T11:59:40.639Z,1006.07
2023-05-10T12:00:39.345Z,1006.09
2023-05-10T12:01:39.521Z,1006.11
2023-05-10T12:02:39.730Z,1006.06
2023-05-10T12:03:39.932Z,1006.16
2023-05-10T12:04:40.087Z,1006.17
2023-05-10T12:06:58.471Z,1006.13
2023-05-10T12:07:55.663Z,1006.16
2023-05-10T12:08:55.796Z,1006.51
2023-05-10T12:09:55.918Z,1006.46
2023-05-10T12:10:56.024Z,1006.53
2023-05-10T12:11:56.156Z,1006.30
2023-05-10T12:12:56.290Z,1006.24
2023-05-10T12:13:56.403Z,1006.43
2023-05-10T12:14:56.519Z,1006.42
2023-05-10T12:15:56.716Z,1006.28
2023-05-10T12:16:56.933Z,1006.27
2023-05-10T12:17:57.915Z,1006.26
2023-05-10T12:18:57.266Z,1006.38
2023-05-10T12:19:57.389Z,1006.37
2023-05-10T12:20:57.451Z,1006.37
2023-05-10T12:21:57.601Z,1006.36
2023-05-10T12:22:59.737Z,1006.31
2023-05-10T12:23:57.875Z,1006.34
2023-05-10T12:24:58.745Z,1006.16
2023-05-10T12:25:58.235Z,1006.21
2023-05-10T12:26:58.319Z,1006.22
2023-05-10T12:27:58.449Z,1006.25
2023-05-10T12:28:58.596Z,1006.22
2023-05-10T12:29:58.734Z,1006.31
2023-05-10T12:30:58.922Z,1006.27
2023-05-10T12:32:00.021Z,1006.30
2023-05-10T12:32:59.121Z,1006.41
2023-05-10T12:34:00.207Z,1006.38
2023-05-10T12:34:59.359Z,1006.26
2023-05-10T12:35:59.506Z,1006.34
2023-05-10T12:36:59.644Z,1006.37
2023-05-10T12:37:59.778Z,1006.33
2023-05-10T12:38:59.916Z,1006.39
2023-05-10T12:40:00.079Z,1006.38
2023-05-10T12:41:00.352Z,1006.38
2023-05-10T12:42:00.421Z,1006.39
2023-05-10T12:43:00.491Z,1006.43
2023-05-10T12:44:00.865Z,1006.43
2023-05-10T12:45:00.789Z,1006.39
2023-05-10T12:46:00.929Z,1006.42
2023-05-10T12:47:01.034Z,1006.44
2023-05-10T12:48:01.208Z,1006.40
2023-05-10T12:49:08.652Z,1006.44
2023-05-10T12:50:02.421Z,1006.46
2023-05-10T12:51:02.504Z,1006.57
2023-05-10T12:52:01.756Z,1006.49
2023-05-10T12:53:01.886Z,1006.45
2023-05-10T12:54:02.059Z,1006.50
2023-05-10T12:55:02.175Z,1006.51
2023-05-10T12:56:02.302Z,1006.57
2023-05-10T12:57:02.411Z,1006.55
2023-05-10T12:58:03.477Z,1006.54
2023-05-10T12:59:02.706Z,1006.52
2023-05-10T13:00:02.873Z,1006.58
2023-05-10T13:01:03.059Z,1006.52
2023-05-10T13:02:03.292Z,1006.59
2023-05-10T13:03:03.216Z,1006.55
2023-05-10T13:04:03.368Z,1006.45
2023-05-10T13:05:03.551Z,1006.50
2023-05-10T13:06:03.721Z,1006.55
2023-05-10T13:07:03.684Z,1006.50
2023-05-10T13:08:03.880Z,1006.54
2023-05-10T13:09:03.992Z,1006.53
2023-05-10T13:10:04.117Z,1006.53
2023-05-10T13:11:04.673Z,1006.54
2023-05-10T13:12:04.749Z,1006.57
2023-05-10T13:13:04.491Z,1006.54
2023-05-10T13:14:04.965Z,1006.60
2023-05-10T13:15:04.874Z,1006.56
2023-05-10T13:16:05.941Z,1006.59
2023-05-10T13:17:05.209Z,1006.64
2023-05-10T13:18:05.216Z,1006.60
2023-05-10T13:19:05.540Z,1006.74
2023-05-10T13:20:05.816Z,1006.62
2023-05-10T13:21:05.515Z,1006.64
2023-05-10T13:22:05.653Z,1006.61
2023-05-10T13:23:05.761Z,1006.65
2023-05-10T13:24:05.903Z,1006.58
2023-05-10T13:25:05.998Z,1006.65
2023-05-10T13:26:06.097Z,1006.68
2023-05-10T13:27:06.249Z,1006.61
2023-05-10T13:28:06.384Z,1006.60
2023-05-10T13:29:06.501Z,1006.58
2023-05-10T13:30:06.631Z,1006.61
2023-05-10T13:31:06.741Z,1006.62
2023-05-10T13:32:06.867Z,1006.66
2023-05-10T13:33:07.056Z,1006.63
2023-05-10T13:34:07.131Z,1006.69
2023-05-10T13:35:07.263Z,1006.66
2023-05-10T13:36:07.409Z,1006.68
2023-05-10T13:37:07.503Z,1006.66
2023-05-10T13:38:07.635Z,1006.68
2023-05-10T13:39:07.798Z,1006.64
2023-05-10T13:40:07.890Z,1006.70
2023-05-10T13:41:07.996Z,1006.64
2023-05-10T13:42:08.137Z,1006.61
2023-05-10T13:43:08.258Z,1006.60
2023-05-10T13:44:08.349Z,1006.56
2023-05-10T13:45:08.491Z,1006.56
2023-05-10T13:46:08.731Z,1006.60
2023-05-10T13:47:08.775Z,1006.60
2023-05-10T13:50:25.560Z,1006.65
2023-05-10T13:51:25.662Z,1006.65
2023-05-10T13:52:25.784Z,1006.74
2023-05-10T13:53:25.874Z,1006.69
2023-05-10T13:54:26.149Z,1006.65
2023-05-10T13:55:26.102Z,1006.67
2023-05-10T13:56:27.157Z,1006.62
2023-05-10T13:57:26.347Z,1006.68
2023-05-10T13:58:26.499Z,1006.69
2023-05-10T13:59:26.637Z,1006.66
2023-05-10T14:00:26.740Z,1006.67
2023-05-10T14:01:26.980Z,1006.65
2023-05-10T14:02:27.140Z,1006.74
2023-05-10T14:03:27.215Z,1006.70
2023-05-10T14:04:27.236Z,1006.69
2023-05-10T14:05:27.700Z,1006.74
2023-05-10T14:06:27.585Z,1006.71
2023-05-10T14:07:27.696Z,1006.74
2023-05-10T14:08:27.854Z,1006.67
2023-05-10T14:09:27.977Z,1006.76
2023-05-10T14:10:28.092Z,1006.73
2023-05-10T14:11:28.214Z,1006.73
2023-05-10T14:12:28.314Z,1006.71
2023-05-10T14:13:28.484Z,1006.75
2023-05-10T14:14:28.657Z,1006.80
2023-05-10T14:15:28.722Z,1006.76
2023-05-10T14:16:28.863Z,1006.79
2023-05-10T14:17:28.974Z,1006.82
2023-05-10T14:18:29.088Z,1006.77
2023-05-10T14:19:29.180Z,1006.78
2023-05-10T14:20:29.274Z,1006.77
2023-05-10T14:21:29.475Z,1006.83
2023-05-10T14:22:29.622Z,1006.81
2023-05-10T14:23:29.879Z,1006.75
2023-05-10T14:24:29.828Z,1006.75
2023-05-10T14:25:29.934Z,1006.78
2023-05-10T14:26:30.089Z,1006.75
2023-05-10T14:27:30.219Z,1006.80
2023-05-10T14:28:30.370Z,1006.81
2023-05-10T14:29:30.461Z,1006.82
2023-05-10T14:30:30.600Z,1006.81
2023-05-10T14:31:30.722Z,1006.75
2023-05-10T14:32:30.875Z,1006.80
2023-05-10T14:33:30.998Z,1006.71
2023-05-10T14:34:31.058Z,1006.77
2023-05-10T14:35:31.175Z,1006.77
2023-05-10T14:36:31.304Z,1006.76
2023-05-10T14:37:31.393Z,1006.73
2023-05-10T14:38:31.639Z,1006.78
2023-05-10T14:39:31.706Z,1006.73
2023-05-10T14:40:31.836Z,1006.74
2023-05-10T14:41:31.926Z,1006.71
2023-05-10T14:42:32.039Z,1006.71
2023-05-10T14:43:32.222Z,1006.70
2023-05-10T14:44:32.333Z,1006.80
2023-05-10T14:45:32.498Z,1006.80
2023-05-10T14:46:32.653Z,1006.73
2023-05-10T14:47:32.722Z,1006.73
2023-05-10T14:48:32.890Z,1006.74
2023-05-10T14:49:32.978Z,1006.79
2023-05-10T14:50:37.031Z,1006.76
2023-05-10T14:51:33.256Z,1006.81
2023-05-10T14:52:34.343Z,1006.83
2023-05-10T14:53:33.511Z,1006.87
2023-05-10T14:54:33.607Z,1006.76
2023-05-10T14:55:33.801Z,1006.84
2023-05-10T14:56:33.928Z,1006.81
2023-05-10T14:57:34.016Z,1006.84
2023-05-10T14:58:34.477Z,1006.83
2023-05-10T14:59:34.278Z,1006.85
2023-05-10T15:00:34.395Z,1006.87
2023-05-10T15:01:34.541Z,1006.83
2023-05-10T15:02:36.647Z,1006.80
2023-05-10T15:03:34.946Z,1006.81
2023-05-10T15:04:34.889Z,1006.77
2023-05-10T15:05:35.074Z,1006.79
2023-05-10T15:06:35.153Z,1006.79
2023-05-10T15:07:35.271Z,1006.79
2023-05-10T15:08:35.404Z,1006.77
2023-05-10T15:09:35.551Z,1006.75
2023-05-10T15:10:35.724Z,1006.79
2023-05-10T15:11:35.801Z,1006.81
2023-05-10T15:12:35.919Z,1006.78
2023-05-10T15:13:36.093Z,1006.79
2023-05-10T15:14:36.178Z,1006.80
2023-05-10T15:15:36.327Z,1006.83
2023-05-10T15:16:36.630Z,1006.82
2023-05-10T15:17:36.545Z,1006.84
2023-05-10T15:18:36.694Z,1006.84
2023-05-10T15:19:36.776Z,1006.85
2023-05-10T15:20:36.914Z,1006.81
2023-05-10T15:21:37.021Z,1006.84
2023-05-10T15:22:37.228Z,1006.87
2023-05-10T15:23:37.316Z,1006.90
2023-05-10T15:24:37.524Z,1006.90
2023-05-10T15:25:37.668Z,1006.90
2023-05-10T15:26:37.755Z,1006.97
2023-05-10T15:27:37.924Z,1006.93
2023-05-10T15:28:38.045Z,1006.97
2023-05-10T15:29:38.194Z,1006.93
2023-05-10T15:30:38.288Z,1006.92
2023-05-10T15:31:38.457Z,1007.00
2023-05-10T15:32:38.564Z,1006.93
2023-05-10T15:33:38.661Z,1006.98
2023-05-10T15:34:38.829Z,1006.98
2023-05-10T15:35:38.980Z,1007.00
2023-05-10T15:36:39.159Z,1007.03
2023-05-10T15:37:39.295Z,1007.05
2023-05-10T15:38:39.395Z,1007.07
2023-05-10T15:39:39.537Z,1007.07
2023-05-10T15:40:39.731Z,1007.05
2023-05-10T15:41:39.851Z,1007.06
2023-05-10T15:42:39.996Z,1007.09
2023-05-10T15:43:41.060Z,1007.11
2023-05-10T15:44:40.288Z,1007.10
2023-05-10T15:45:40.358Z,1007.14
2023-05-10T15:46:40.601Z,1007.12
2023-05-10T15:47:40.830Z,1007.13
2023-05-10T15:48:40.864Z,1007.16
2023-05-10T15:49:40.999Z,1007.16
2023-05-10T15:50:41.119Z,1007.16
2023-05-10T15:51:41.237Z,1007.16
2023-05-10T15:52:41.428Z,1007.18
2023-05-10T15:53:52.696Z,1007.17
2023-05-10T15:54:42.703Z,1007.14
2023-05-10T15:55:41.833Z,1007.13
2023-05-10T15:56:41.978Z,1007.16
2023-05-10T15:57:42.148Z,1007.20
2023-05-10T15:58:42.210Z,1007.14
2023-05-10T15:59:42.316Z,1007.15
2023-05-10T16:00:42.522Z,1007.22
2023-05-10T16:12:39.747Z,1007.19
2023-05-10T16:13:40.799Z,1007.19
2023-05-10T16:14:40.020Z,1007.15
2023-05-10T16:15:41.083Z,1007.17
2023-05-10T16:16:40.353Z,1007.22
2023-05-10T16:17:40.541Z,1007.19
2023-05-10T16:18:40.629Z,1007.23
2023-05-10T16:19:40.658Z,1007.28
2023-05-10T16:20:40.832Z,1007.25
2023-05-10T16:21:40.942Z,1007.28
2023-05-10T16:22:41.095Z,1007.29
2023-05-10T16:23:41.190Z,1007.34
2023-05-10T16:24:41.296Z,1007.32
2023-05-10T16:25:41.478Z,1007.36
2023-05-10T16:26:42.549Z,1007.34
2023-05-10T16:27:41.774Z,1007.37
2023-05-10T16:28:42.831Z,1007.36
2023-05-10T16:29:42.068Z,1007.37
2023-05-10T16:30:42.343Z,1007.42
2023-05-10T16:31:42.335Z,1007.44
2023-05-10T16:32:43.510Z,1007.45
2023-05-10T16:33:42.640Z,1007.49
2023-05-10T16:34:42.769Z,1007.49
2023-05-10T16:35:42.891Z,1007.50